sensor_id;sensor_type;location;lat;lon;timestamp;P1;durP1;ratioP1;P2;durP2;ratioP2
41685;SDS011;27370;42.764;23.432;2023-05-07T00:00:22;10.80;;;6.55;;
41685;SDS011;27370;42.764;23.432;2023-05-07T00:02:48;11.32;;;6.00;;
41685;SDS011;27370;42.764;23.432;2023-05-07T00:05:13;9.98;;;6.28;;
41685;SDS011;27370;42.764;23.432;2023-05-07T00:07:39;13.25;;;6.80;;
41685;SDS011;27370;42.764;23.432;2023-05-07T00:10:05;11.93;;;7.18;;
41685;SDS011;27370;42.764;23.432;2023-05-07T00:12:32;11.07;;;6.25;;
41685;SDS011;27370;42.764;23.432;2023-05-07T00:15:03;10.95;;;6.05;;
41685;SDS011;27370;42.764;23.432;2023-05-07T00:19:55;11.02;;;6.45;;
41685;SDS011;27370;42.764;23.432;2023-05-07T00:22:21;11.00;;;6.60;;
41685;SDS011;27370;42.764;23.432;2023-05-07T00:24:46;11.80;;;6.38;;
41685;SDS011;27370;42.764;23.432;2023-05-07T00:27:12;11.50;;;6.35;;
41685;SDS011;27370;42.764;23.432;2023-05-07T00:29:38;10.90;;;6.45;;
41685;SDS011;27370;42.764;23.432;2023-05-07T00:32:03;12.95;;;6.97;;
41685;SDS011;27370;42.764;23.432;2023-05-07T00:34:29;11.82;;;6.75;;
41685;SDS011;27370;42.764;23.432;2023-05-07T00:36:55;10.50;;;6.47;;
41685;SDS011;27370;42.764;23.432;2023-05-07T00:39:38;13.93;;;7.57;;
41685;SDS011;27370;42.764;23.432;2023-05-07T00:42:04;11.63;;;7.78;;
41685;SDS011;27370;42.764;23.432;2023-05-07T00:44:29;12.45;;;8.02;;
41685;SDS011;27370;42.764;23.432;2023-05-07T00:46:58;13.35;;;7.38;;
41685;SDS011;27370;42.764;23.432;2023-05-07T00:49:27;12.18;;;8.13;;
41685;SDS011;27370;42.764;23.432;2023-05-07T00:52:07;12.75;;;8.13;;
41685;SDS011;27370;42.764;23.432;2023-05-07T00:54:36;14.70;;;8.90;;
41685;SDS011;27370;42.764;23.432;2023-05-07T00:57:02;12.05;;;8.05;;
41685;SDS011;27370;42.764;23.432;2023-05-07T00:59:29;13.80;;;8.80;;
41685;SDS011;27370;42.764;23.432;2023-05-07T01:01:56;12.43;;;7.82;;
41685;SDS011;27370;42.764;23.432;2023-05-07T01:04:22;13.55;;;7.43;;
41685;SDS011;27370;42.764;23.432;2023-05-07T01:06:47;12.63;;;8.63;;
41685;SDS011;27370;42.764;23.432;2023-05-07T01:09:15;15.07;;;9.10;;
41685;SDS011;27370;42.764;23.432;2023-05-07T01:11:41;14.18;;;8.77;;
41685;SDS011;27370;42.764;23.432;2023-05-07T01:14:08;13.10;;;8.15;;
41685;SDS011;27370;42.764;23.432;2023-05-07T01:16:34;15.25;;;8.57;;
41685;SDS011;27370;42.764;23.432;2023-05-07T01:19:00;12.98;;;7.93;;
41685;SDS011;27370;42.764;23.432;2023-05-07T01:21:26;12.75;;;8.60;;
41685;SDS011;27370;42.764;23.432;2023-05-07T01:23:55;13.75;;;8.23;;
41685;SDS011;27370;42.764;23.432;2023-05-07T01:26:22;13.88;;;8.88;;
41685;SDS011;27370;42.764;23.432;2023-05-07T01:28:49;14.10;;;9.20;;
41685;SDS011;27370;42.764;23.432;2023-05-07T01:31:14;14.32;;;9.10;;
41685;SDS011;27370;42.764;23.432;2023-05-07T01:33:42;15.15;;;9.05;;
41685;SDS011;27370;42.764;23.432;2023-05-07T01:36:11;26.50;;;10.30;;
41685;SDS011;27370;42.764;23.432;2023-05-07T01:38:38;14.40;;;10.00;;
41685;SDS011;27370;42.764;23.432;2023-05-07T01:41:06;14.80;;;9.93;;
41685;SDS011;27370;42.764;23.432;2023-05-07T01:43:32;14.57;;;9.55;;
41685;SDS011;27370;42.764;23.432;2023-05-07T01:45:58;15.50;;;9.18;;
41685;SDS011;27370;42.764;23.432;2023-05-07T01:48:26;15.25;;;9.57;;
41685;SDS011;27370;42.764;23.432;2023-05-07T01:50:52;14.70;;;9.15;;
41685;SDS011;27370;42.764;23.432;2023-05-07T01:53:18;15.43;;;9.60;;
41685;SDS011;27370;42.764;23.432;2023-05-07T01:55:43;13.98;;;9.60;;
41685;SDS011;27370;42.764;23.432;2023-05-07T01:58:10;14.30;;;9.38;;
41685;SDS011;27370;42.764;23.432;2023-05-07T02:00:36;16.13;;;9.80;;
41685;SDS011;27370;42.764;23.432;2023-05-07T02:03:01;15.00;;;9.35;;
41685;SDS011;27370;42.764;23.432;2023-05-07T02:05:47;13.70;;;8.57;;
41685;SDS011;27370;42.764;23.432;2023-05-07T02:08:27;14.85;;;9.32;;
41685;SDS011;27370;42.764;23.432;2023-05-07T02:10:52;13.82;;;9.63;;
41685;SDS011;27370;42.764;23.432;2023-05-07T02:13:19;17.55;;;10.65;;
41685;SDS011;27370;42.764;23.432;2023-05-07T02:15:45;16.63;;;11.98;;
41685;SDS011;27370;42.764;23.432;2023-05-07T02:18:15;17.85;;;12.85;;
41685;SDS011;27370;42.764;23.432;2023-05-07T02:20:41;17.17;;;11.30;;
41685;SDS011;27370;42.764;23.432;2023-05-07T02:23:07;15.85;;;11.90;;
41685;SDS011;27370;42.764;23.432;2023-05-07T02:25:32;18.90;;;13.20;;
41685;SDS011;27370;42.764;23.432;2023-05-07T02:27:58;20.73;;;14.52;;
41685;SDS011;27370;42.764;23.432;2023-05-07T02:30:36;20.23;;;14.73;;
41685;SDS011;27370;42.764;23.432;2023-05-07T02:33:02;21.58;;;16.00;;
41685;SDS011;27370;42.764;23.432;2023-05-07T02:35:27;20.17;;;14.50;;
41685;SDS011;27370;42.764;23.432;2023-05-07T02:37:53;19.92;;;13.65;;
41685;SDS011;27370;42.764;23.432;2023-05-07T02:40:19;20.95;;;14.40;;
41685;SDS011;27370;42.764;23.432;2023-05-07T02:42:45;19.88;;;14.98;;
41685;SDS011;27370;42.764;23.432;2023-05-07T02:45:11;20.92;;;15.13;;
41685;SDS011;27370;42.764;23.432;2023-05-07T02:47:37;22.15;;;15.40;;
41685;SDS011;27370;42.764;23.432;2023-05-07T02:50:03;21.15;;;15.07;;
41685;SDS011;27370;42.764;23.432;2023-05-07T02:52:29;21.50;;;15.48;;
41685;SDS011;27370;42.764;23.432;2023-05-07T02:54:55;20.40;;;14.57;;
41685;SDS011;27370;42.764;23.432;2023-05-07T02:57:20;19.65;;;14.43;;
41685;SDS011;27370;42.764;23.432;2023-05-07T02:59:46;21.05;;;14.77;;
41685;SDS011;27370;42.764;23.432;2023-05-07T03:02:13;20.42;;;14.70;;
41685;SDS011;27370;42.764;23.432;2023-05-07T03:04:39;18.15;;;13.95;;
41685;SDS011;27370;42.764;23.432;2023-05-07T03:07:05;21.70;;;15.15;;
41685;SDS011;27370;42.764;23.432;2023-05-07T03:09:30;22.40;;;13.82;;
41685;SDS011;27370;42.764;23.432;2023-05-07T03:11:56;18.05;;;13.77;;
41685;SDS011;27370;42.764;23.432;2023-05-07T03:14:22;20.48;;;14.38;;
41685;SDS011;27370;42.764;23.432;2023-05-07T03:16:48;19.63;;;14.18;;
41685;SDS011;27370;42.764;23.432;2023-05-07T03:19:15;21.67;;;13.90;;
41685;SDS011;27370;42.764;23.432;2023-05-07T03:21:40;20.30;;;13.45;;
41685;SDS011;27370;42.764;23.432;2023-05-07T03:24:06;18.60;;;13.82;;
41685;SDS011;27370;42.764;23.432;2023-05-07T03:26:32;19.00;;;12.63;;
41685;SDS011;27370;42.764;23.432;2023-05-07T03:28:57;18.02;;;12.50;;
41685;SDS011;27370;42.764;23.432;2023-05-07T03:31:23;17.88;;;11.50;;
41685;SDS011;27370;42.764;23.432;2023-05-07T03:33:55;15.75;;;12.20;;
41685;SDS011;27370;42.764;23.432;2023-05-07T03:36:23;17.55;;;11.27;;
41685;SDS011;27370;42.764;23.432;2023-05-07T03:38:49;15.73;;;11.35;;
41685;SDS011;27370;42.764;23.432;2023-05-07T03:41:18;19.08;;;12.55;;
41685;SDS011;27370;42.764;23.432;2023-05-07T03:43:45;16.55;;;12.48;;
41685;SDS011;27370;42.764;23.432;2023-05-07T03:46:11;17.13;;;11.77;;
41685;SDS011;27370;42.764;23.432;2023-05-07T03:48:37;18.75;;;11.60;;
41685;SDS011;27370;42.764;23.432;2023-05-07T03:51:03;15.93;;;11.98;;
41685;SDS011;27370;42.764;23.432;2023-05-07T03:53:31;17.60;;;12.75;;
41685;SDS011;27370;42.764;23.432;2023-05-07T03:55:57;16.08;;;12.10;;
41685;SDS011;27370;42.764;23.432;2023-05-07T03:58:23;15.73;;;11.65;;
41685;SDS011;27370;42.764;23.432;2023-05-07T04:00:49;13.77;;;9.40;;
41685;SDS011;27370;42.764;23.432;2023-05-07T04:03:23;13.27;;;8.65;;
41685;SDS011;27370;42.764;23.432;2023-05-07T04:05:49;13.90;;;9.00;;
41685;SDS011;27370;42.764;23.432;2023-05-07T04:08:15;13.25;;;8.85;;
41685;SDS011;27370;42.764;23.432;2023-05-07T04:10:45;14.68;;;8.80;;
41685;SDS011;27370;42.764;23.432;2023-05-07T04:13:11;13.88;;;9.40;;
41685;SDS011;27370;42.764;23.432;2023-05-07T04:15:37;14.77;;;9.23;;
41685;SDS011;27370;42.764;23.432;2023-05-07T04:18:05;14.90;;;9.17;;
41685;SDS011;27370;42.764;23.432;2023-05-07T04:20:33;15.63;;;8.55;;
41685;SDS011;27370;42.764;23.432;2023-05-07T04:23:01;15.00;;;8.70;;
41685;SDS011;27370;42.764;23.432;2023-05-07T04:25:27;13.43;;;9.25;;
41685;SDS011;27370;42.764;23.432;2023-05-07T04:27:59;15.05;;;9.23;;
41685;SDS011;27370;42.764;23.432;2023-05-07T04:30:27;12.65;;;8.65;;
41685;SDS011;27370;42.764;23.432;2023-05-07T04:32:52;15.27;;;8.85;;
41685;SDS011;27370;42.764;23.432;2023-05-07T04:35:19;14.10;;;8.98;;
41685;SDS011;27370;42.764;23.432;2023-05-07T04:37:44;14.32;;;8.55;;
41685;SDS011;27370;42.764;23.432;2023-05-07T04:40:11;13.25;;;8.65;;
41685;SDS011;27370;42.764;23.432;2023-05-07T04:42:37;13.80;;;8.30;;
41685;SDS011;27370;42.764;23.432;2023-05-07T04:45:02;12.57;;;8.38;;
41685;SDS011;27370;42.764;23.432;2023-05-07T04:47:31;15.02;;;8.18;;
41685;SDS011;27370;42.764;23.432;2023-05-07T04:49:57;12.40;;;8.10;;
41685;SDS011;27370;42.764;23.432;2023-05-07T04:52:23;12.52;;;7.78;;
41685;SDS011;27370;42.764;23.432;2023-05-07T04:54:49;13.27;;;7.28;;
41685;SDS011;27370;42.764;23.432;2023-05-07T04:57:14;13.20;;;7.68;;
41685;SDS011;27370;42.764;23.432;2023-05-07T04:59:42;13.10;;;7.43;;
41685;SDS011;27370;42.764;23.432;2023-05-07T05:02:07;12.30;;;7.82;;
41685;SDS011;27370;42.764;23.432;2023-05-07T05:04:33;12.02;;;6.88;;
41685;SDS011;27370;42.764;23.432;2023-05-07T05:06:58;13.07;;;7.03;;
41685;SDS011;27370;42.764;23.432;2023-05-07T05:09:24;13.30;;;7.65;;
41685;SDS011;27370;42.764;23.432;2023-05-07T05:11:50;12.20;;;6.88;;
41685;SDS011;27370;42.764;23.432;2023-05-07T05:14:15;12.63;;;7.28;;
41685;SDS011;27370;42.764;23.432;2023-05-07T05:16:41;12.32;;;6.68;;
41685;SDS011;27370;42.764;23.432;2023-05-07T05:19:07;11.30;;;6.80;;
41685;SDS011;27370;42.764;23.432;2023-05-07T05:21:36;13.15;;;7.50;;
41685;SDS011;27370;42.764;23.432;2023-05-07T05:24:06;12.18;;;6.47;;
41685;SDS011;27370;42.764;23.432;2023-05-07T05:26:31;10.48;;;6.40;;
41685;SDS011;27370;42.764;23.432;2023-05-07T05:28:57;11.85;;;6.45;;
41685;SDS011;27370;42.764;23.432;2023-05-07T05:31:25;9.90;;;5.85;;
41685;SDS011;27370;42.764;23.432;2023-05-07T05:33:50;11.88;;;6.45;;
41685;SDS011;27370;42.764;23.432;2023-05-07T05:36:16;10.52;;;6.68;;
41685;SDS011;27370;42.764;23.432;2023-05-07T05:38:44;11.68;;;6.85;;
41685;SDS011;27370;42.764;23.432;2023-05-07T05:41:10;12.05;;;7.10;;
41685;SDS011;27370;42.764;23.432;2023-05-07T05:43:36;11.95;;;7.72;;
41685;SDS011;27370;42.764;23.432;2023-05-07T05:46:02;12.85;;;8.18;;
41685;SDS011;27370;42.764;23.432;2023-05-07T05:48:29;13.05;;;8.05;;
41685;SDS011;27370;42.764;23.432;2023-05-07T05:50:56;11.52;;;8.20;;
41685;SDS011;27370;42.764;23.432;2023-05-07T05:53:21;13.30;;;8.63;;
41685;SDS011;27370;42.764;23.432;2023-05-07T05:55:47;14.25;;;9.10;;
41685;SDS011;27370;42.764;23.432;2023-05-07T05:58:13;14.63;;;8.75;;
41685;SDS011;27370;42.764;23.432;2023-05-07T06:00:44;14.20;;;9.07;;
41685;SDS011;27370;42.764;23.432;2023-05-07T06:03:11;12.85;;;8.55;;
41685;SDS011;27370;42.764;23.432;2023-05-07T06:05:36;15.27;;;9.38;;
41685;SDS011;27370;42.764;23.432;2023-05-07T06:08:02;12.82;;;8.75;;
41685;SDS011;27370;42.764;23.432;2023-05-07T06:10:31;14.85;;;8.75;;
41685;SDS011;27370;42.764;23.432;2023-05-07T06:12:57;13.32;;;9.02;;
41685;SDS011;27370;42.764;23.432;2023-05-07T06:15:22;16.45;;;8.32;;
41685;SDS011;27370;42.764;23.432;2023-05-07T06:17:48;13.68;;;8.75;;
41685;SDS011;27370;42.764;23.432;2023-05-07T06:20:14;12.18;;;8.13;;
41685;SDS011;27370;42.764;23.432;2023-05-07T06:22:40;13.25;;;8.63;;
41685;SDS011;27370;42.764;23.432;2023-05-07T06:25:07;11.68;;;7.28;;
41685;SDS011;27370;42.764;23.432;2023-05-07T06:27:33;12.98;;;8.00;;
41685;SDS011;27370;42.764;23.432;2023-05-07T06:29:58;12.05;;;8.27;;
41685;SDS011;27370;42.764;23.432;2023-05-07T06:32:24;12.85;;;7.90;;
41685;SDS011;27370;42.764;23.432;2023-05-07T06:34:50;11.52;;;7.43;;
41685;SDS011;27370;42.764;23.432;2023-05-07T06:37:16;15.32;;;7.40;;
41685;SDS011;27370;42.764;23.432;2023-05-07T06:39:52;11.35;;;7.45;;
41685;SDS011;27370;42.764;23.432;2023-05-07T06:42:19;14.63;;;8.02;;
41685;SDS011;27370;42.764;23.432;2023-05-07T06:44:47;13.52;;;7.47;;
41685;SDS011;27370;42.764;23.432;2023-05-07T06:47:15;13.27;;;7.28;;
41685;SDS011;27370;42.764;23.432;2023-05-07T06:49:40;13.25;;;6.60;;
41685;SDS011;27370;42.764;23.432;2023-05-07T06:52:06;10.63;;;6.47;;
41685;SDS011;27370;42.764;23.432;2023-05-07T06:54:32;11.93;;;6.28;;
41685;SDS011;27370;42.764;23.432;2023-05-07T06:56:57;13.10;;;7.38;;
41685;SDS011;27370;42.764;23.432;2023-05-07T06:59:25;10.95;;;6.28;;
41685;SDS011;27370;42.764;23.432;2023-05-07T07:01:51;10.55;;;6.40;;
41685;SDS011;27370;42.764;23.432;2023-05-07T07:04:17;11.60;;;6.55;;
41685;SDS011;27370;42.764;23.432;2023-05-07T07:06:47;11.75;;;6.72;;
41685;SDS011;27370;42.764;23.432;2023-05-07T07:09:13;10.30;;;6.63;;
41685;SDS011;27370;42.764;23.432;2023-05-07T07:11:39;10.52;;;6.43;;
41685;SDS011;27370;42.764;23.432;2023-05-07T07:14:05;10.77;;;6.38;;
41685;SDS011;27370;42.764;23.432;2023-05-07T07:16:35;10.38;;;6.07;;
41685;SDS011;27370;42.764;23.432;2023-05-07T07:19:01;11.05;;;6.20;;
41685;SDS011;27370;42.764;23.432;2023-05-07T07:21:26;10.52;;;6.05;;
41685;SDS011;27370;42.764;23.432;2023-05-07T07:23:52;11.93;;;6.43;;
41685;SDS011;27370;42.764;23.432;2023-05-07T07:26:19;10.65;;;6.35;;
41685;SDS011;27370;42.764;23.432;2023-05-07T07:28:45;11.60;;;6.60;;
41685;SDS011;27370;42.764;23.432;2023-05-07T07:31:12;12.45;;;7.50;;
41685;SDS011;27370;42.764;23.432;2023-05-07T07:33:38;12.05;;;6.72;;
41685;SDS011;27370;42.764;23.432;2023-05-07T07:36:05;11.73;;;7.30;;
41685;SDS011;27370;42.764;23.432;2023-05-07T07:38:31;14.43;;;7.72;;
41685;SDS011;27370;42.764;23.432;2023-05-07T07:40:58;12.68;;;7.88;;
41685;SDS011;27370;42.764;23.432;2023-05-07T07:43:23;11.80;;;7.80;;
41685;SDS011;27370;42.764;23.432;2023-05-07T07:45:49;13.18;;;6.95;;
41685;SDS011;27370;42.764;23.432;2023-05-07T07:48:15;14.32;;;7.35;;
41685;SDS011;27370;42.764;23.432;2023-05-07T07:50:41;11.65;;;6.80;;
41685;SDS011;27370;42.764;23.432;2023-05-07T07:53:07;11.80;;;7.13;;
41685;SDS011;27370;42.764;23.432;2023-05-07T07:55:37;12.15;;;7.07;;
41685;SDS011;27370;42.764;23.432;2023-05-07T07:58:04;11.38;;;6.90;;
41685;SDS011;27370;42.764;23.432;2023-05-07T08:00:30;13.45;;;7.20;;
41685;SDS011;27370;42.764;23.432;2023-05-07T08:02:56;11.63;;;7.40;;
41685;SDS011;27370;42.764;23.432;2023-05-07T08:05:26;12.75;;;7.30;;
41685;SDS011;27370;42.764;23.432;2023-05-07T08:07:53;11.68;;;7.30;;
41685;SDS011;27370;42.764;23.432;2023-05-07T08:10:23;12.73;;;7.05;;
41685;SDS011;27370;42.764;23.432;2023-05-07T08:12:54;11.90;;;6.40;;
41685;SDS011;27370;42.764;23.432;2023-05-07T08:15:20;11.88;;;5.95;;
41685;SDS011;27370;42.764;23.432;2023-05-07T08:17:46;12.23;;;6.00;;
41685;SDS011;27370;42.764;23.432;2023-05-07T08:20:12;10.50;;;5.72;;
41685;SDS011;27370;42.764;23.432;2023-05-07T08:22:38;13.35;;;5.70;;
41685;SDS011;27370;42.764;23.432;2023-05-07T08:25:04;9.50;;;5.03;;
41685;SDS011;27370;42.764;23.432;2023-05-07T08:27:30;11.77;;;5.35;;
41685;SDS011;27370;42.764;23.432;2023-05-07T08:29:56;8.82;;;4.80;;
41685;SDS011;27370;42.764;23.432;2023-05-07T08:32:22;8.65;;;4.20;;
41685;SDS011;27370;42.764;23.432;2023-05-07T08:34:47;8.13;;;4.10;;
41685;SDS011;27370;42.764;23.432;2023-05-07T08:37:14;6.65;;;3.40;;
41685;SDS011;27370;42.764;23.432;2023-05-07T08:39:40;6.25;;;3.05;;
41685;SDS011;27370;42.764;23.432;2023-05-07T08:42:12;6.68;;;3.28;;
41685;SDS011;27370;42.764;23.432;2023-05-07T08:44:39;6.88;;;3.35;;
41685;SDS011;27370;42.764;23.432;2023-05-07T08:47:08;8.55;;;3.85;;
41685;SDS011;27370;42.764;23.432;2023-05-07T08:49:36;8.15;;;3.40;;
41685;SDS011;27370;42.764;23.432;2023-05-07T08:52:02;7.47;;;3.53;;
41685;SDS011;27370;42.764;23.432;2023-05-07T08:54:28;5.90;;;3.47;;
41685;SDS011;27370;42.764;23.432;2023-05-07T08:56:55;7.72;;;3.40;;
41685;SDS011;27370;42.764;23.432;2023-05-07T08:59:21;6.65;;;3.50;;
41685;SDS011;27370;42.764;23.432;2023-05-07T09:01:46;5.38;;;3.22;;
41685;SDS011;27370;42.764;23.432;2023-05-07T09:04:12;7.45;;;3.90;;
41685;SDS011;27370;42.764;23.432;2023-05-07T09:06:38;8.40;;;3.33;;
41685;SDS011;27370;42.764;23.432;2023-05-07T09:09:08;7.28;;;3.67;;
41685;SDS011;27370;42.764;23.432;2023-05-07T09:11:34;11.25;;;4.93;;
41685;SDS011;27370;42.764;23.432;2023-05-07T09:14:00;9.55;;;3.90;;
41685;SDS011;27370;42.764;23.432;2023-05-07T09:16:29;6.70;;;3.63;;
41685;SDS011;27370;42.764;23.432;2023-05-07T09:18:57;5.95;;;3.22;;
41685;SDS011;27370;42.764;23.432;2023-05-07T09:21:24;7.68;;;3.72;;
41685;SDS011;27370;42.764;23.432;2023-05-07T09:23:53;6.43;;;3.50;;
41685;SDS011;27370;42.764;23.432;2023-05-07T09:26:23;8.25;;;3.38;;
41685;SDS011;27370;42.764;23.432;2023-05-07T09:28:50;8.15;;;3.22;;
41685;SDS011;27370;42.764;23.432;2023-05-07T09:31:16;6.90;;;3.30;;
41685;SDS011;27370;42.764;23.432;2023-05-07T09:33:42;9.27;;;3.30;;
41685;SDS011;27370;42.764;23.432;2023-05-07T09:36:10;15.80;;;5.00;;
41685;SDS011;27370;42.764;23.432;2023-05-07T09:38:38;9.75;;;4.45;;
41685;SDS011;27370;42.764;23.432;2023-05-07T09:43:40;19.98;;;5.38;;
41685;SDS011;27370;42.764;23.432;2023-05-07T09:46:08;114.45;;;20.00;;
41685;SDS011;27370;42.764;23.432;2023-05-07T09:48:37;7.07;;;3.10;;
41685;SDS011;27370;42.764;23.432;2023-05-07T09:54:13;6.55;;;2.45;;
41685;SDS011;27370;42.764;23.432;2023-05-07T09:56:44;7.68;;;2.85;;
41685;SDS011;27370;42.764;23.432;2023-05-07T09:59:12;6.00;;;2.92;;
41685;SDS011;27370;42.764;23.432;2023-05-07T10:01:40;7.25;;;2.60;;
41685;SDS011;27370;42.764;23.432;2023-05-07T10:04:07;7.30;;;2.60;;
41685;SDS011;27370;42.764;23.432;2023-05-07T10:06:37;5.63;;;3.03;;
41685;SDS011;27370;42.764;23.432;2023-05-07T10:09:04;4.63;;;2.40;;
41685;SDS011;27370;42.764;23.432;2023-05-07T10:11:34;6.00;;;2.90;;
41685;SDS011;27370;42.764;23.432;2023-05-07T10:14:01;4.53;;;2.60;;
41685;SDS011;27370;42.764;23.432;2023-05-07T10:16:30;6.50;;;2.88;;
41685;SDS011;27370;42.764;23.432;2023-05-07T10:19:09;5.95;;;2.95;;
41685;SDS011;27370;42.764;23.432;2023-05-07T10:21:42;5.20;;;2.80;;
41685;SDS011;27370;42.764;23.432;2023-05-07T10:24:20;5.90;;;3.05;;
41685;SDS011;27370;42.764;23.432;2023-05-07T10:26:51;6.90;;;2.85;;
41685;SDS011;27370;42.764;23.432;2023-05-07T10:34:49;5.50;;;2.50;;
41685;SDS011;27370;42.764;23.432;2023-05-07T10:37:18;4.13;;;2.50;;
41685;SDS011;27370;42.764;23.432;2023-05-07T10:39:44;4.35;;;2.35;;
41685;SDS011;27370;42.764;23.432;2023-05-07T10:42:11;4.63;;;2.50;;
41685;SDS011;27370;42.764;23.432;2023-05-07T10:44:41;5.22;;;2.63;;
41685;SDS011;27370;42.764;23.432;2023-05-07T10:47:12;4.75;;;2.67;;
41685;SDS011;27370;42.764;23.432;2023-05-07T10:52:16;4.75;;;2.70;;
41685;SDS011;27370;42.764;23.432;2023-05-07T10:57:48;4.63;;;2.30;;
41685;SDS011;27370;42.764;23.432;2023-05-07T11:05:37;5.55;;;2.70;;
41685;SDS011;27370;42.764;23.432;2023-05-07T11:08:16;5.30;;;2.90;;
41685;SDS011;27370;42.764;23.432;2023-05-07T11:10:57;6.22;;;2.88;;
41685;SDS011;27370;42.764;23.432;2023-05-07T11:13:55;6.22;;;3.08;;
41685;SDS011;27370;42.764;23.432;2023-05-07T11:16:41;6.40;;;2.75;;
41685;SDS011;27370;42.764;23.432;2023-05-07T11:19:24;3.95;;;2.55;;
41685;SDS011;27370;42.764;23.432;2023-05-07T11:25:21;5.47;;;2.72;;
41685;SDS011;27370;42.764;23.432;2023-05-07T11:28:06;3.92;;;2.45;;
41685;SDS011;27370;42.764;23.432;2023-05-07T11:30:36;5.75;;;2.72;;
41685;SDS011;27370;42.764;23.432;2023-05-07T11:33:04;5.72;;;2.90;;
41685;SDS011;27370;42.764;23.432;2023-05-07T11:35:32;7.28;;;3.13;;
41685;SDS011;27370;42.764;23.432;2023-05-07T11:37:59;5.50;;;2.60;;
41685;SDS011;27370;42.764;23.432;2023-05-07T11:40:26;5.35;;;2.80;;
41685;SDS011;27370;42.764;23.432;2023-05-07T11:42:53;8.68;;;3.20;;
41685;SDS011;27370;42.764;23.432;2023-05-07T11:45:25;6.32;;;2.78;;
41685;SDS011;27370;42.764;23.432;2023-05-07T11:47:50;4.88;;;2.80;;
41685;SDS011;27370;42.764;23.432;2023-05-07T11:50:16;5.75;;;2.75;;
41685;SDS011;27370;42.764;23.432;2023-05-07T11:52:49;4.15;;;2.67;;
41685;SDS011;27370;42.764;23.432;2023-05-07T11:55:18;4.90;;;2.53;;
41685;SDS011;27370;42.764;23.432;2023-05-07T11:57:44;5.22;;;2.78;;
41685;SDS011;27370;42.764;23.432;2023-05-07T12:00:10;5.80;;;2.70;;
41685;SDS011;27370;42.764;23.432;2023-05-07T12:02:38;6.50;;;2.67;;
41685;SDS011;27370;42.764;23.432;2023-05-07T12:05:04;5.82;;;2.65;;
41685;SDS011;27370;42.764;23.432;2023-05-07T12:07:30;6.85;;;2.78;;
41685;SDS011;27370;42.764;23.432;2023-05-07T12:09:56;3.83;;;2.30;;
41685;SDS011;27370;42.764;23.432;2023-05-07T12:12:22;5.50;;;2.80;;
41685;SDS011;27370;42.764;23.432;2023-05-07T12:14:49;6.43;;;2.67;;
41685;SDS011;27370;42.764;23.432;2023-05-07T12:17:14;4.80;;;2.80;;
41685;SDS011;27370;42.764;23.432;2023-05-07T12:19:42;4.70;;;2.50;;
41685;SDS011;27370;42.764;23.432;2023-05-07T12:22:08;5.15;;;2.67;;
41685;SDS011;27370;42.764;23.432;2023-05-07T12:24:43;5.30;;;2.55;;
41685;SDS011;27370;42.764;23.432;2023-05-07T12:27:14;6.60;;;2.70;;
41685;SDS011;27370;42.764;23.432;2023-05-07T12:29:47;4.75;;;2.50;;
41685;SDS011;27370;42.764;23.432;2023-05-07T12:32:30;5.88;;;2.90;;
41685;SDS011;27370;42.764;23.432;2023-05-07T12:34:55;6.63;;;2.58;;
41685;SDS011;27370;42.764;23.432;2023-05-07T12:37:23;5.40;;;2.53;;
41685;SDS011;27370;42.764;23.432;2023-05-07T12:40:11;4.75;;;2.22;;
41685;SDS011;27370;42.764;23.432;2023-05-07T12:42:37;5.13;;;2.42;;
41685;SDS011;27370;42.764;23.432;2023-05-07T12:45:13;4.45;;;2.50;;
41685;SDS011;27370;42.764;23.432;2023-05-07T12:47:47;6.15;;;2.88;;
41685;SDS011;27370;42.764;23.432;2023-05-07T12:50:16;4.82;;;2.25;;
41685;SDS011;27370;42.764;23.432;2023-05-07T12:52:42;4.78;;;2.20;;
41685;SDS011;27370;42.764;23.432;2023-05-07T12:55:11;4.70;;;2.40;;
41685;SDS011;27370;42.764;23.432;2023-05-07T12:57:40;3.53;;;1.98;;
41685;SDS011;27370;42.764;23.432;2023-05-07T13:00:07;4.72;;;2.17;;
41685;SDS011;27370;42.764;23.432;2023-05-07T13:02:38;3.00;;;2.08;;
41685;SDS011;27370;42.764;23.432;2023-05-07T13:05:06;2.45;;;1.90;;
41685;SDS011;27370;42.764;23.432;2023-05-07T13:07:32;4.72;;;2.35;;
41685;SDS011;27370;42.764;23.432;2023-05-07T13:09:58;3.63;;;2.05;;
41685;SDS011;27370;42.764;23.432;2023-05-07T13:12:23;2.50;;;2.00;;
41685;SDS011;27370;42.764;23.432;2023-05-07T13:14:49;7.32;;;2.10;;
41685;SDS011;27370;42.764;23.432;2023-05-07T13:17:14;4.03;;;2.00;;
41685;SDS011;27370;42.764;23.432;2023-05-07T13:19:40;6.63;;;2.38;;
41685;SDS011;27370;42.764;23.432;2023-05-07T13:22:05;3.97;;;2.20;;
41685;SDS011;27370;42.764;23.432;2023-05-07T13:24:31;4.60;;;2.22;;
41685;SDS011;27370;42.764;23.432;2023-05-07T13:26:56;4.82;;;2.05;;
41685;SDS011;27370;42.764;23.432;2023-05-07T13:29:22;5.13;;;2.35;;
41685;SDS011;27370;42.764;23.432;2023-05-07T13:31:55;4.05;;;2.20;;
41685;SDS011;27370;42.764;23.432;2023-05-07T13:34:21;4.32;;;2.30;;
41685;SDS011;27370;42.764;23.432;2023-05-07T13:36:47;4.47;;;2.20;;
41685;SDS011;27370;42.764;23.432;2023-05-07T13:39:12;3.97;;;2.17;;
41685;SDS011;27370;42.764;23.432;2023-05-07T13:41:38;5.57;;;2.30;;
41685;SDS011;27370;42.764;23.432;2023-05-07T13:44:03;5.47;;;2.33;;
41685;SDS011;27370;42.764;23.432;2023-05-07T13:46:30;3.78;;;2.30;;
41685;SDS011;27370;42.764;23.432;2023-05-07T13:48:56;4.80;;;2.40;;
41685;SDS011;27370;42.764;23.432;2023-05-07T13:51:22;5.30;;;2.33;;
41685;SDS011;27370;42.764;23.432;2023-05-07T13:53:47;4.55;;;2.25;;
41685;SDS011;27370;42.764;23.432;2023-05-07T13:56:13;3.72;;;2.20;;
41685;SDS011;27370;42.764;23.432;2023-05-07T13:58:39;4.95;;;2.38;;
41685;SDS011;27370;42.764;23.432;2023-05-07T14:01:05;4.93;;;2.30;;
41685;SDS011;27370;42.764;23.432;2023-05-07T14:03:31;5.70;;;2.28;;
41685;SDS011;27370;42.764;23.432;2023-05-07T14:06:00;4.75;;;2.45;;
41685;SDS011;27370;42.764;23.432;2023-05-07T14:08:26;4.10;;;2.00;;
41685;SDS011;27370;42.764;23.432;2023-05-07T14:10:53;6.82;;;2.20;;
41685;SDS011;27370;42.764;23.432;2023-05-07T14:13:18;3.17;;;2.00;;
41685;SDS011;27370;42.764;23.432;2023-05-07T14:15:44;3.50;;;1.92;;
41685;SDS011;27370;42.764;23.432;2023-05-07T14:18:14;6.90;;;2.30;;
41685;SDS011;27370;42.764;23.432;2023-05-07T14:20:40;4.47;;;2.00;;
41685;SDS011;27370;42.764;23.432;2023-05-07T14:23:08;3.40;;;2.17;;
41685;SDS011;27370;42.764;23.432;2023-05-07T14:25:35;3.33;;;2.10;;
41685;SDS011;27370;42.764;23.432;2023-05-07T14:28:00;4.47;;;2.20;;
41685;SDS011;27370;42.764;23.432;2023-05-07T14:30:26;3.92;;;2.15;;
41685;SDS011;27370;42.764;23.432;2023-05-07T14:32:51;4.38;;;2.42;;
41685;SDS011;27370;42.764;23.432;2023-05-07T14:35:17;3.42;;;1.98;;
41685;SDS011;27370;42.764;23.432;2023-05-07T14:37:42;4.05;;;2.22;;
41685;SDS011;27370;42.764;23.432;2023-05-07T14:40:08;3.80;;;2.35;;
41685;SDS011;27370;42.764;23.432;2023-05-07T14:42:34;4.63;;;2.10;;
41685;SDS011;27370;42.764;23.432;2023-05-07T14:45:00;5.80;;;2.10;;
41685;SDS011;27370;42.764;23.432;2023-05-07T14:47:26;6.82;;;2.50;;
41685;SDS011;27370;42.764;23.432;2023-05-07T14:49:52;4.50;;;2.20;;
41685;SDS011;27370;42.764;23.432;2023-05-07T14:52:18;4.18;;;2.05;;
41685;SDS011;27370;42.764;23.432;2023-05-07T14:54:43;3.85;;;2.20;;